sensor_id;sensor_type;location;lat;lon;timestamp;P1;durP1;ratioP1;P2;durP2;ratioP2
7025;SDS011;3554;42.132;24.786;2023-02-15T00:01:29;8.20;;;7.23;;
7025;SDS011;3554;42.132;24.786;2023-02-15T00:03:57;12.60;;;10.47;;
7025;SDS011;3554;42.132;24.786;2023-02-15T00:06:24;11.00;;;9.90;;
7025;SDS011;3554;42.132;24.786;2023-02-15T00:08:51;11.33;;;10.23;;
7025;SDS011;3554;42.132;24.786;2023-02-15T00:11:19;12.27;;;10.97;;
7025;SDS011;3554;42.132;24.786;2023-02-15T00:14:04;13.83;;;10.57;;
7025;SDS011;3554;42.132;24.786;2023-02-15T00:16:32;13.30;;;11.90;;
7025;SDS011;3554;42.132;24.786;2023-02-15T00:19:01;19.60;;;13.10;;
7025;SDS011;3554;42.132;24.786;2023-02-15T00:21:28;16.60;;;11.60;;
7025;SDS011;3554;42.132;24.786;2023-02-15T00:23:56;17.33;;;10.93;;
7025;SDS011;3554;42.132;24.786;2023-02-15T00:26:23;14.27;;;11.63;;
7025;SDS011;3554;42.132;24.786;2023-02-15T00:28:50;14.80;;;12.20;;
7025;SDS011;3554;42.132;24.786;2023-02-15T00:31:17;14.17;;;12.03;;
7025;SDS011;3554;42.132;24.786;2023-02-15T00:33:44;13.97;;;12.57;;
7025;SDS011;3554;42.132;24.786;2023-02-15T00:36:12;14.87;;;12.50;;
7025;SDS011;3554;42.132;24.786;2023-02-15T00:38:39;18.17;;;13.20;;
7025;SDS011;3554;42.132;24.786;2023-02-15T00:41:07;14.07;;;12.17;;
7025;SDS011;3554;42.132;24.786;2023-02-15T00:43:35;12.73;;;11.23;;
7025;SDS011;3554;42.132;24.786;2023-02-15T00:46:02;16.70;;;12.20;;
7025;SDS011;3554;42.132;24.786;2023-02-15T00:48:30;13.07;;;11.77;;
7025;SDS011;3554;42.132;24.786;2023-02-15T00:50:57;14.27;;;11.93;;
7025;SDS011;3554;42.132;24.786;2023-02-15T00:53:27;15.80;;;12.40;;
7025;SDS011;3554;42.132;24.786;2023-02-15T00:55:55;14.70;;;12.70;;
7025;SDS011;3554;42.132;24.786;2023-02-15T00:58:22;19.03;;;13.63;;
7025;SDS011;3554;42.132;24.786;2023-02-15T01:00:48;15.47;;;11.93;;
7025;SDS011;3554;42.132;24.786;2023-02-15T01:03:16;12.53;;;11.20;;
7025;SDS011;3554;42.132;24.786;2023-02-15T01:05:43;16.17;;;12.73;;
7025;SDS011;3554;42.132;24.786;2023-02-15T01:08:10;16.00;;;12.77;;
7025;SDS011;3554;42.132;24.786;2023-02-15T01:10:38;16.23;;;11.00;;
7025;SDS011;3554;42.132;24.786;2023-02-15T01:13:05;16.27;;;12.13;;
7025;SDS011;3554;42.132;24.786;2023-02-15T01:15:33;17.77;;;12.77;;
7025;SDS011;3554;42.132;24.786;2023-02-15T01:18:00;15.50;;;12.30;;
7025;SDS011;3554;42.132;24.786;2023-02-15T01:20:28;19.57;;;13.13;;
7025;SDS011;3554;42.132;24.786;2023-02-15T01:22:56;20.70;;;14.00;;
7025;SDS011;3554;42.132;24.786;2023-02-15T01:25:24;16.23;;;12.63;;
7025;SDS011;3554;42.132;24.786;2023-02-15T01:27:53;18.20;;;12.10;;
7025;SDS011;3554;42.132;24.786;2023-02-15T01:30:19;21.63;;;14.03;;
7025;SDS011;3554;42.132;24.786;2023-02-15T01:32:46;17.53;;;13.70;;
7025;SDS011;3554;42.132;24.786;2023-02-15T01:35:13;21.57;;;14.27;;
7025;SDS011;3554;42.132;24.786;2023-02-15T01:37:40;15.80;;;12.83;;
7025;SDS011;3554;42.132;24.786;2023-02-15T01:40:07;21.70;;;14.57;;
7025;SDS011;3554;42.132;24.786;2023-02-15T01:42:38;13.13;;;11.07;;
7025;SDS011;3554;42.132;24.786;2023-02-15T01:45:11;18.27;;;13.90;;
7025;SDS011;3554;42.132;24.786;2023-02-15T01:47:47;16.63;;;13.43;;
7025;SDS011;3554;42.132;24.786;2023-02-15T01:50:20;17.77;;;14.17;;
7025;SDS011;3554;42.132;24.786;2023-02-15T01:52:51;15.40;;;12.70;;
7025;SDS011;3554;42.132;24.786;2023-02-15T01:55:22;21.00;;;14.37;;
7025;SDS011;3554;42.132;24.786;2023-02-15T01:57:51;17.73;;;13.77;;
7025;SDS011;3554;42.132;24.786;2023-02-15T02:00:19;18.83;;;14.13;;
7025;SDS011;3554;42.132;24.786;2023-02-15T02:02:47;21.17;;;15.13;;
7025;SDS011;3554;42.132;24.786;2023-02-15T02:05:17;18.43;;;14.40;;
7025;SDS011;3554;42.132;24.786;2023-02-15T02:07:44;18.97;;;13.70;;
7025;SDS011;3554;42.132;24.786;2023-02-15T02:10:14;15.80;;;13.43;;
7025;SDS011;3554;42.132;24.786;2023-02-15T02:12:43;18.93;;;14.43;;
7025;SDS011;3554;42.132;24.786;2023-02-15T02:15:13;19.27;;;13.60;;
7025;SDS011;3554;42.132;24.786;2023-02-15T02:17:45;17.90;;;13.70;;
7025;SDS011;3554;42.132;24.786;2023-02-15T02:20:37;16.60;;;12.93;;
7025;SDS011;3554;42.132;24.786;2023-02-15T02:23:31;18.37;;;13.57;;
7025;SDS011;3554;42.132;24.786;2023-02-15T02:26:13;20.23;;;15.77;;
7025;SDS011;3554;42.132;24.786;2023-02-15T02:29:03;17.90;;;13.47;;
7025;SDS011;3554;42.132;24.786;2023-02-15T02:32:08;22.77;;;14.90;;
7025;SDS011;3554;42.132;24.786;2023-02-15T02:34:55;19.97;;;13.37;;
7025;SDS011;3554;42.132;24.786;2023-02-15T02:37:28;20.10;;;14.03;;
7025;SDS011;3554;42.132;24.786;2023-02-15T02:40:03;18.87;;;13.87;;
7025;SDS011;3554;42.132;24.786;2023-02-15T02:42:34;21.60;;;14.10;;
7025;SDS011;3554;42.132;24.786;2023-02-15T02:45:05;17.63;;;14.80;;
7025;SDS011;3554;42.132;24.786;2023-02-15T02:47:36;21.40;;;15.13;;
7025;SDS011;3554;42.132;24.786;2023-02-15T02:50:08;16.03;;;12.47;;
7025;SDS011;3554;42.132;24.786;2023-02-15T02:52:40;16.33;;;12.50;;
7025;SDS011;3554;42.132;24.786;2023-02-15T02:55:10;20.17;;;14.23;;
7025;SDS011;3554;42.132;24.786;2023-02-15T02:57:43;18.67;;;13.30;;
7025;SDS011;3554;42.132;24.786;2023-02-15T03:00:17;19.97;;;14.80;;
7025;SDS011;3554;42.132;24.786;2023-02-15T03:02:44;18.70;;;13.73;;
7025;SDS011;3554;42.132;24.786;2023-02-15T03:05:17;19.03;;;14.87;;
7025;SDS011;3554;42.132;24.786;2023-02-15T03:07:50;18.03;;;14.67;;
7025;SDS011;3554;42.132;24.786;2023-02-15T03:10:20;23.63;;;15.63;;
7025;SDS011;3554;42.132;24.786;2023-02-15T03:12:50;23.93;;;16.93;;
7025;SDS011;3554;42.132;24.786;2023-02-15T03:15:19;19.13;;;14.07;;
7025;SDS011;3554;42.132;24.786;2023-02-15T03:17:48;17.70;;;14.07;;
7025;SDS011;3554;42.132;24.786;2023-02-15T03:20:22;22.13;;;16.17;;
7025;SDS011;3554;42.132;24.786;2023-02-15T03:22:53;22.43;;;15.13;;
7025;SDS011;3554;42.132;24.786;2023-02-15T03:25:25;21.40;;;15.97;;
7025;SDS011;3554;42.132;24.786;2023-02-15T03:27:58;20.57;;;15.63;;
7025;SDS011;3554;42.132;24.786;2023-02-15T03:30:28;26.80;;;16.20;;
7025;SDS011;3554;42.132;24.786;2023-02-15T03:32:57;21.77;;;16.23;;
7025;SDS011;3554;42.132;24.786;2023-02-15T03:35:30;22.60;;;16.43;;
7025;SDS011;3554;42.132;24.786;2023-02-15T03:38:03;21.20;;;15.70;;
7025;SDS011;3554;42.132;24.786;2023-02-15T03:40:34;24.40;;;17.33;;
7025;SDS011;3554;42.132;24.786;2023-02-15T03:43:22;20.13;;;14.20;;
7025;SDS011;3554;42.132;24.786;2023-02-15T03:45:57;20.33;;;15.07;;
7025;SDS011;3554;42.132;24.786;2023-02-15T03:48:32;21.50;;;14.80;;
7025;SDS011;3554;42.132;24.786;2023-02-15T03:51:05;21.37;;;15.57;;
7025;SDS011;3554;42.132;24.786;2023-02-15T03:54:06;20.77;;;15.00;;
7025;SDS011;3554;42.132;24.786;2023-02-15T03:56:35;22.50;;;16.03;;
7025;SDS011;3554;42.132;24.786;2023-02-15T03:59:03;27.47;;;15.47;;
7025;SDS011;3554;42.132;24.786;2023-02-15T04:01:51;20.93;;;15.53;;
7025;SDS011;3554;42.132;24.786;2023-02-15T04:04:29;19.20;;;15.90;;
7025;SDS011;3554;42.132;24.786;2023-02-15T04:07:00;23.23;;;15.80;;
7025;SDS011;3554;42.132;24.786;2023-02-15T04:09:27;23.00;;;15.60;;
7025;SDS011;3554;42.132;24.786;2023-02-15T04:12:11;23.87;;;16.40;;
7025;SDS011;3554;42.132;24.786;2023-02-15T04:14:38;22.87;;;16.73;;
7025;SDS011;3554;42.132;24.786;2023-02-15T04:17:22;25.33;;;16.10;;
7025;SDS011;3554;42.132;24.786;2023-02-15T04:19:48;22.97;;;15.97;;
7025;SDS011;3554;42.132;24.786;2023-02-15T04:22:34;20.03;;;13.40;;
7025;SDS011;3554;42.132;24.786;2023-02-15T04:25:18;22.10;;;15.87;;
7025;SDS011;3554;42.132;24.786;2023-02-15T04:27:45;23.27;;;16.47;;
7025;SDS011;3554;42.132;24.786;2023-02-15T04:30:14;27.43;;;17.93;;
7025;SDS011;3554;42.132;24.786;2023-02-15T04:32:43;32.33;;;16.73;;
7025;SDS011;3554;42.132;24.786;2023-02-15T04:35:10;23.00;;;15.23;;
7025;SDS011;3554;42.132;24.786;2023-02-15T04:37:38;25.80;;;16.20;;
7025;SDS011;3554;42.132;24.786;2023-02-15T04:40:06;23.70;;;15.57;;
7025;SDS011;3554;42.132;24.786;2023-02-15T04:42:34;22.33;;;16.07;;
7025;SDS011;3554;42.132;24.786;2023-02-15T04:45:01;21.73;;;14.20;;
7025;SDS011;3554;42.132;24.786;2023-02-15T04:47:28;23.47;;;14.80;;
7025;SDS011;3554;42.132;24.786;2023-02-15T04:49:55;20.67;;;14.07;;
7025;SDS011;3554;42.132;24.786;2023-02-15T04:52:21;23.40;;;16.83;;
7025;SDS011;3554;42.132;24.786;2023-02-15T04:54:50;20.00;;;15.63;;
7025;SDS011;3554;42.132;24.786;2023-02-15T04:57:16;24.77;;;16.77;;
7025;SDS011;3554;42.132;24.786;2023-02-15T04:59:43;23.47;;;15.93;;
7025;SDS011;3554;42.132;24.786;2023-02-15T05:02:10;20.43;;;15.53;;
7025;SDS011;3554;42.132;24.786;2023-02-15T05:04:37;21.67;;;15.67;;
7025;SDS011;3554;42.132;24.786;2023-02-15T05:07:03;23.80;;;15.40;;
7025;SDS011;3554;42.132;24.786;2023-02-15T05:09:30;23.90;;;14.77;;
7025;SDS011;3554;42.132;24.786;2023-02-15T05:11:58;22.50;;;15.50;;
7025;SDS011;3554;42.132;24.786;2023-02-15T05:14:25;22.63;;;16.60;;
7025;SDS011;3554;42.132;24.786;2023-02-15T05:16:52;25.40;;;16.33;;
7025;SDS011;3554;42.132;24.786;2023-02-15T05:19:19;24.00;;;15.33;;
7025;SDS011;3554;42.132;24.786;2023-02-15T05:21:48;24.17;;;16.30;;
7025;SDS011;3554;42.132;24.786;2023-02-15T05:24:15;26.60;;;16.20;;
7025;SDS011;3554;42.132;24.786;2023-02-15T05:27:00;21.30;;;15.03;;
7025;SDS011;3554;42.132;24.786;2023-02-15T05:29:45;20.03;;;14.23;;
7025;SDS011;3554;42.132;24.786;2023-02-15T05:32:12;24.37;;;15.57;;
7025;SDS011;3554;42.132;24.786;2023-02-15T05:34:39;22.33;;;14.97;;
7025;SDS011;3554;42.132;24.786;2023-02-15T05:37:06;25.30;;;16.00;;
7025;SDS011;3554;42.132;24.786;2023-02-15T05:39:33;22.50;;;14.07;;
7025;SDS011;3554;42.132;24.786;2023-02-15T05:42:01;24.20;;;17.13;;
7025;SDS011;3554;42.132;24.786;2023-02-15T05:44:28;27.63;;;16.80;;
7025;SDS011;3554;42.132;24.786;2023-02-15T05:46:55;20.07;;;15.07;;
7025;SDS011;3554;42.132;24.786;2023-02-15T05:49:22;23.17;;;17.73;;
7025;SDS011;3554;42.132;24.786;2023-02-15T05:51:49;25.63;;;15.70;;
7025;SDS011;3554;42.132;24.786;2023-02-15T05:54:15;19.63;;;15.57;;
7025;SDS011;3554;42.132;24.786;2023-02-15T05:56:42;21.37;;;13.93;;
7025;SDS011;3554;42.132;24.786;2023-02-15T05:59:10;21.27;;;15.93;;
7025;SDS011;3554;42.132;24.786;2023-02-15T06:01:37;28.00;;;18.23;;
7025;SDS011;3554;42.132;24.786;2023-02-15T06:04:04;25.97;;;16.50;;
7025;SDS011;3554;42.132;24.786;2023-02-15T06:06:31;24.73;;;15.97;;
7025;SDS011;3554;42.132;24.786;2023-02-15T06:08:59;28.50;;;17.97;;
7025;SDS011;3554;42.132;24.786;2023-02-15T06:11:26;22.73;;;16.20;;
7025;SDS011;3554;42.132;24.786;2023-02-15T06:13:53;27.37;;;17.53;;
7025;SDS011;3554;42.132;24.786;2023-02-15T06:16:21;22.97;;;16.03;;
7025;SDS011;3554;42.132;24.786;2023-02-15T06:18:48;24.00;;;15.47;;
7025;SDS011;3554;42.132;24.786;2023-02-15T06:21:14;19.67;;;15.77;;
7025;SDS011;3554;42.132;24.786;2023-02-15T06:23:41;24.70;;;16.30;;
7025;SDS011;3554;42.132;24.786;2023-02-15T06:26:08;24.63;;;16.53;;
7025;SDS011;3554;42.132;24.786;2023-02-15T06:28:35;28.07;;;16.03;;
7025;SDS011;3554;42.132;24.786;2023-02-15T06:31:02;21.17;;;15.00;;
7025;SDS011;3554;42.132;24.786;2023-02-15T06:33:30;24.90;;;16.53;;
7025;SDS011;3554;42.132;24.786;2023-02-15T06:35:58;19.83;;;15.67;;
7025;SDS011;3554;42.132;24.786;2023-02-15T06:38:25;18.40;;;14.57;;
7025;SDS011;3554;42.132;24.786;2023-02-15T06:40:52;23.60;;;15.93;;
7025;SDS011;3554;42.132;24.786;2023-02-15T06:43:19;24.13;;;15.13;;
7025;SDS011;3554;42.132;24.786;2023-02-15T06:45:45;20.43;;;13.47;;
7025;SDS011;3554;42.132;24.786;2023-02-15T06:48:12;22.70;;;16.23;;
7025;SDS011;3554;42.132;24.786;2023-02-15T06:50:41;22.33;;;15.87;;
7025;SDS011;3554;42.132;24.786;2023-02-15T06:53:07;16.23;;;12.50;;
7025;SDS011;3554;42.132;24.786;2023-02-15T06:55:34;24.63;;;16.20;;
7025;SDS011;3554;42.132;24.786;2023-02-15T06:58:01;19.47;;;14.83;;
7025;SDS011;3554;42.132;24.786;2023-02-15T07:00:28;21.23;;;15.37;;
7025;SDS011;3554;42.132;24.786;2023-02-15T07:02:55;19.67;;;14.17;;
7025;SDS011;3554;42.132;24.786;2023-02-15T07:05:22;17.93;;;13.53;;
7025;SDS011;3554;42.132;24.786;2023-02-15T07:07:51;14.53;;;12.00;;
7025;SDS011;3554;42.132;24.786;2023-02-15T07:10:18;22.77;;;14.73;;
7025;SDS011;3554;42.132;24.786;2023-02-15T07:12:44;19.07;;;13.90;;
7025;SDS011;3554;42.132;24.786;2023-02-15T07:15:11;21.27;;;14.43;;
7025;SDS011;3554;42.132;24.786;2023-02-15T07:17:39;17.47;;;13.40;;
7025;SDS011;3554;42.132;24.786;2023-02-15T07:20:07;17.13;;;13.17;;
7025;SDS011;3554;42.132;24.786;2023-02-15T07:22:36;17.67;;;13.47;;
7025;SDS011;3554;42.132;24.786;2023-02-15T07:25:05;18.63;;;13.60;;
7025;SDS011;3554;42.132;24.786;2023-02-15T07:27:34;18.30;;;11.87;;
7025;SDS011;3554;42.132;24.786;2023-02-15T07:30:01;14.77;;;13.00;;
7025;SDS011;3554;42.132;24.786;2023-02-15T07:32:29;20.47;;;14.50;;
7025;SDS011;3554;42.132;24.786;2023-02-15T07:34:56;18.83;;;14.03;;
7025;SDS011;3554;42.132;24.786;2023-02-15T07:37:24;21.03;;;12.93;;
7025;SDS011;3554;42.132;24.786;2023-02-15T07:39:51;15.77;;;12.97;;
7025;SDS011;3554;42.132;24.786;2023-02-15T07:42:19;17.83;;;13.20;;
7025;SDS011;3554;42.132;24.786;2023-02-15T07:44:46;20.40;;;13.90;;
7025;SDS011;3554;42.132;24.786;2023-02-15T07:47:13;17.67;;;12.67;;
7025;SDS011;3554;42.132;24.786;2023-02-15T07:49:40;20.27;;;12.70;;
7025;SDS011;3554;42.132;24.786;2023-02-15T07:52:07;21.00;;;13.07;;
7025;SDS011;3554;42.132;24.786;2023-02-15T07:54:34;17.63;;;13.67;;
7025;SDS011;3554;42.132;24.786;2023-02-15T07:57:00;14.50;;;12.50;;
7025;SDS011;3554;42.132;24.786;2023-02-15T07:59:29;20.13;;;13.87;;
7025;SDS011;3554;42.132;24.786;2023-02-15T08:01:55;18.33;;;14.47;;
7025;SDS011;3554;42.132;24.786;2023-02-15T08:04:22;17.90;;;13.27;;
7025;SDS011;3554;42.132;24.786;2023-02-15T08:06:51;16.13;;;12.70;;
7025;SDS011;3554;42.132;24.786;2023-02-15T08:09:19;16.27;;;11.27;;
7025;SDS011;3554;42.132;24.786;2023-02-15T08:11:46;17.47;;;13.77;;
7025;SDS011;3554;42.132;24.786;2023-02-15T08:14:14;23.40;;;14.97;;
7025;SDS011;3554;42.132;24.786;2023-02-15T08:16:44;22.70;;;12.57;;
7025;SDS011;3554;42.132;24.786;2023-02-15T08:19:15;14.17;;;12.57;;
7025;SDS011;3554;42.132;24.786;2023-02-15T08:21:44;15.00;;;12.33;;
7025;SDS011;3554;42.132;24.786;2023-02-15T08:24:14;16.97;;;13.63;;
7025;SDS011;3554;42.132;24.786;2023-02-15T08:26:43;16.90;;;13.20;;
7025;SDS011;3554;42.132;24.786;2023-02-15T08:29:11;18.63;;;13.17;;
7025;SDS011;3554;42.132;24.786;2023-02-15T08:31:39;17.00;;;13.57;;
7025;SDS011;3554;42.132;24.786;2023-02-15T08:34:07;21.53;;;13.27;;
7025;SDS011;3554;42.132;24.786;2023-02-15T08:36:35;18.60;;;13.93;;
7025;SDS011;3554;42.132;24.786;2023-02-15T08:39:03;17.10;;;14.57;;
7025;SDS011;3554;42.132;24.786;2023-02-15T08:41:31;16.67;;;14.03;;
7025;SDS011;3554;42.132;24.786;2023-02-15T08:43:59;16.93;;;13.83;;
7025;SDS011;3554;42.132;24.786;2023-02-15T08:46:28;18.77;;;14.20;;
7025;SDS011;3554;42.132;24.786;2023-02-15T08:48:57;16.73;;;13.23;;
7025;SDS011;3554;42.132;24.786;2023-02-15T08:51:26;16.60;;;14.40;;
7025;SDS011;3554;42.132;24.786;2023-02-15T08:53:55;20.60;;;13.10;;
7025;SDS011;3554;42.132;24.786;2023-02-15T08:56:24;16.77;;;14.17;;
7025;SDS011;3554;42.132;24.786;2023-02-15T08:58:53;18.40;;;13.70;;
7025;SDS011;3554;42.132;24.786;2023-02-15T09:01:21;17.83;;;12.87;;
7025;SDS011;3554;42.132;24.786;2023-02-15T09:03:49;13.83;;;12.03;;
7025;SDS011;3554;42.132;24.786;2023-02-15T09:06:18;20.17;;;13.43;;
7025;SDS011;3554;42.132;24.786;2023-02-15T09:08:47;15.20;;;13.60;;
7025;SDS011;3554;42.132;24.786;2023-02-15T09:11:15;14.87;;;13.37;;
7025;SDS011;3554;42.132;24.786;2023-02-15T09:13:47;25.10;;;13.80;;
7025;SDS011;3554;42.132;24.786;2023-02-15T09:16:15;20.40;;;14.57;;
7025;SDS011;3554;42.132;24.786;2023-02-15T09:18:42;19.70;;;14.37;;
7025;SDS011;3554;42.132;24.786;2023-02-15T09:21:10;17.43;;;13.07;;
7025;SDS011;3554;42.132;24.786;2023-02-15T09:23:39;18.80;;;13.87;;
7025;SDS011;3554;42.132;24.786;2023-02-15T09:26:08;20.87;;;13.27;;
7025;SDS011;3554;42.132;24.786;2023-02-15T09:28:37;18.90;;;13.83;;
7025;SDS011;3554;42.132;24.786;2023-02-15T09:31:07;16.37;;;13.07;;
7025;SDS011;3554;42.132;24.786;2023-02-15T09:33:36;15.67;;;13.83;;
7025;SDS011;3554;42.132;24.786;2023-02-15T09:36:04;16.53;;;13.87;;
7025;SDS011;3554;42.132;24.786;2023-02-15T09:38:32;15.03;;;12.20;;
7025;SDS011;3554;42.132;24.786;2023-02-15T09:41:04;16.53;;;12.97;;
7025;SDS011;3554;42.132;24.786;2023-02-15T09:43:42;14.13;;;12.67;;
7025;SDS011;3554;42.132;24.786;2023-02-15T09:46:22;18.50;;;12.70;;
7025;SDS011;3554;42.132;24.786;2023-02-15T09:49:02;14.87;;;12.50;;
7025;SDS011;3554;42.132;24.786;2023-02-15T09:51:46;15.33;;;12.57;;
7025;SDS011;3554;42.132;24.786;2023-02-15T09:54:29;15.43;;;12.80;;
7025;SDS011;3554;42.132;24.786;2023-02-15T09:57:08;14.07;;;12.67;;
7025;SDS011;3554;42.132;24.786;2023-02-15T09:59:41;19.80;;;13.67;;
7025;SDS011;3554;42.132;24.786;2023-02-15T10:02:18;15.03;;;12.43;;
7025;SDS011;3554;42.132;24.786;2023-02-15T10:05:00;18.40;;;14.57;;
7025;SDS011;3554;42.132;24.786;2023-02-15T10:07:42;19.37;;;14.17;;
7025;SDS011;3554;42.132;24.786;2023-02-15T10:10:25;28.43;;;15.50;;
7025;SDS011;3554;42.132;24.786;2023-02-15T10:13:04;21.27;;;13.97;;
7025;SDS011;3554;42.132;24.786;2023-02-15T10:15:51;17.73;;;14.10;;
7025;SDS011;3554;42.132;24.786;2023-02-15T10:18:31;17.73;;;12.83;;
7025;SDS011;3554;42.132;24.786;2023-02-15T10:21:21;12.80;;;11.50;;
7025;SDS011;3554;42.132;24.786;2023-02-15T10:24:19;13.80;;;12.30;;
7025;SDS011;3554;42.132;24.786;2023-02-15T10:26:55;13.57;;;12.17;;
7025;SDS011;3554;42.132;24.786;2023-02-15T10:29:29;17.37;;;10.97;;
7025;SDS011;3554;42.132;24.786;2023-02-15T10:32:04;13.90;;;10.37;;
7025;SDS011;3554;42.132;24.786;2023-02-15T10:34:43;14.80;;;12.00;;
7025;SDS011;3554;42.132;24.786;2023-02-15T10:37:20;13.40;;;12.10;;
7025;SDS011;3554;42.132;24.786;2023-02-15T10:40:03;14.73;;;12.10;;
7025;SDS011;3554;42.132;24.786;2023-02-15T10:42:39;12.87;;;11.67;;
7025;SDS011;3554;42.132;24.786;2023-02-15T10:45:19;12.67;;;10.97;;
7025;SDS011;3554;42.132;24.786;2023-02-15T10:50:46;14.80;;;11.27;;
7025;SDS011;3554;42.132;24.786;2023-02-15T10:53:27;12.77;;;11.47;;
7025;SDS011;3554;42.132;24.786;2023-02-15T10:56:12;12.10;;;11.00;;
7025;SDS011;3554;42.132;24.786;2023-02-15T10:58:50;13.63;;;12.07;;
7025;SDS011;3554;42.132;24.786;2023-02-15T11:01:29;11.53;;;10.37;;
7025;SDS011;3554;42.132;24.786;2023-02-15T11:07:02;16.20;;;11.23;;
7025;SDS011;3554;42.132;24.786;2023-02-15T11:09:33;11.30;;;10.17;;
7025;SDS011;3554;42.132;24.786;2023-02-15T11:12:07;12.57;;;10.97;;
7025;SDS011;3554;42.132;24.786;2023-02-15T11:14:39;15.37;;;10.73;;
7025;SDS011;3554;42.132;24.786;2023-02-15T11:17:15;11.07;;;9.93;;
7025;SDS011;3554;42.132;24.786;2023-02-15T11:19:48;15.40;;;11.37;;
7025;SDS011;3554;42.132;24.786;2023-02-15T11:22:21;14.23;;;10.43;;
7025;SDS011;3554;42.132;24.786;2023-02-15T11:24:49;8.67;;;7.90;;
7025;SDS011;3554;42.132;24.786;2023-02-15T11:27:17;14.13;;;11.17;;
7025;SDS011;3554;42.132;24.786;2023-02-15T11:29:50;11.37;;;10.27;;
7025;SDS011;3554;42.132;24.786;2023-02-15T11:32:23;11.43;;;10.33;;
7025;SDS011;3554;42.132;24.786;2023-02-15T11:34:53;14.07;;;9.37;;
7025;SDS011;3554;42.132;24.786;2023-02-15T11:37:27;10.70;;;9.60;;
7025;SDS011;3554;42.132;24.786;2023-02-15T11:40:00;15.80;;;11.53;;
7025;SDS011;3554;42.132;24.786;2023-02-15T11:42:28;20.43;;;11.87;;
7025;SDS011;3554;42.132;24.786;2023-02-15T11:44:58;28.03;;;14.70;;
7025;SDS011;3554;42.132;24.786;2023-02-15T11:47:30;12.80;;;10.43;;
7025;SDS011;3554;42.132;24.786;2023-02-15T11:49:57;15.77;;;12.53;;
7025;SDS011;3554;42.132;24.786;2023-02-15T11:52:24;14.07;;;11.27;;
7025;SDS011;3554;42.132;24.786;2023-02-15T11:54:51;15.70;;;11.93;;
7025;SDS011;3554;42.132;24.786;2023-02-15T11:57:20;13.20;;;11.27;;
7025;SDS011;3554;42.132;24.786;2023-02-15T11:59:50;11.13;;;10.03;;
7025;SDS011;3554;42.132;24.786;2023-02-15T12:02:22;10.37;;;9.47;;
7025;SDS011;3554;42.132;24.786;2023-02-15T12:04:53;14.37;;;11.33;;
7025;SDS011;3554;42.132;24.786;2023-02-15T12:07:24;11.97;;;10.83;;
7025;SDS011;3554;42.132;24.786;2023-02-15T12:09:56;12.60;;;11.33;;
7025;SDS011;3554;42.132;24.786;2023-02-15T12:12:30;11.23;;;10.13;;
7025;SDS011;3554;42.132;24.786;2023-02-15T12:14:58;11.23;;;10.23;;
7025;SDS011;3554;42.132;24.786;2023-02-15T12:17:27;15.50;;;10.40;;
7025;SDS011;3554;42.132;24.786;2023-02-15T12:19:57;12.63;;;11.43;;
7025;SDS011;3554;42.132;24.786;2023-02-15T12:22:28;13.67;;;10.70;;
7025;SDS011;3554;42.132;24.786;2023-02-15T12:24:57;13.47;;;12.00;;
7025;SDS011;3554;42.132;24.786;2023-02-15T12:27:27;17.67;;;11.57;;
7025;SDS011;3554;42.132;24.786;2023-02-15T12:29:56;10.07;;;9.17;;
7025;SDS011;3554;42.132;24.786;2023-02-15T12:32:27;18.27;;;13.40;;
7025;SDS011;3554;42.132;24.786;2023-02-15T12:35:01;12.13;;;8.37;;
7025;SDS011;3554;42.132;24.786;2023-02-15T12:37:34;11.23;;;10.33;;
7025;SDS011;3554;42.132;24.786;2023-02-15T12:40:02;15.70;;;12.10;;
7025;SDS011;3554;42.132;24.786;2023-02-15T12:42:44;14.03;;;11.77;;
7025;SDS011;3554;42.132;24.786;2023-02-15T12:45:22;13.73;;;10.40;;
7025;SDS011;3554;42.132;24.786;2023-02-15T12:50:37;10.70;;;9.70;;
7025;SDS011;3554;42.132;24.786;2023-02-15T12:53:06;9.37;;;8.67;;
7025;SDS011;3554;42.132;24.786;2023-02-15T12:55:34;9.70;;;8.87;;
7025;SDS011;3554;42.132;24.786;2023-02-15T12:58:08;11.23;;;9.50;;
7025;SDS011;3554;42.132;24.786;2023-02-15T13:00:41;15.47;;;10.37;;
7025;SDS011;3554;42.132;24.786;2023-02-15T13:03:15;15.90;;;10.03;;
7025;SDS011;3554;42.132;24.786;2023-02-15T13:05:45;12.30;;;10.90;;
7025;SDS011;3554;42.132;24.786;2023-02-15T13:08:15;11.97;;;10.77;;
7025;SDS011;3554;42.132;24.786;2023-02-15T13:10:52;12.70;;;10.90;;
7025;SDS011;3554;42.132;24.786;2023-02-15T13:13:21;10.57;;;9.57;;
7025;SDS011;3554;42.132;24.786;2023-02-15T13:15:51;12.43;;;9.40;;
7025;SDS011;3554;42.132;24.786;2023-02-15T13:18:23;10.87;;;9.83;;
7025;SDS011;3554;42.132;24.786;2023-02-15T13:20:56;9.53;;;8.83;;
7025;SDS011;3554;42.132;24.786;2023-02-15T13:23:28;10.17;;;9.27;;
7025;SDS011;3554;42.132;24.786;2023-02-15T13:25:58;8.90;;;8.17;;
7025;SDS011;3554;42.132;24.786;2023-02-15T13:28:31;9.67;;;8.27;;
7025;SDS011;3554;42.132;24.786;2023-02-15T13:31:07;9.70;;;8.90;;
7025;SDS011;3554;42.132;24.786;2023-02-15T13:33:39;9.47;;;8.67;;
7025;SDS011;3554;42.132;24.786;2023-02-15T13:36:14;10.13;;;9.20;;
7025;SDS011;3554;42.132;24.786;2023-02-15T13:38:49;9.57;;;8.87;;
7025;SDS011;3554;42.132;24.786;2023-02-15T13:41:30;11.60;;;10.17;;
7025;SDS011;3554;42.132;24.786;2023-02-15T13:44:03;10.10;;;9.17;;
7025;SDS011;3554;42.132;24.786;2023-02-15T13:46:45;11.13;;;10.10;;
7025;SDS011;3554;42.132;24.786;2023-02-15T13:49:31;10.20;;;9.10;;
7025;SDS011;3554;42.132;24.786;2023-02-15T13:52:14;12.87;;;11.53;;
7025;SDS011;3554;42.132;24.786;2023-02-15T13:54:49;9.43;;;8.53;;
7025;SDS011;3554;42.132;24.786;2023-02-15T13:57:45;10.83;;;9.73;;
7025;SDS011;3554;42.132;24.786;2023-02-15T14:00:22;9.73;;;8.83;;
7025;SDS011;3554;42.132;24.786;2023-02-15T14:03:11;9.23;;;8.43;;
7025;SDS011;3554;42.132;24.786;2023-02-15T14:06:07;9.87;;;9.07;;
7025;SDS011;3554;42.132;24.786;2023-02-15T14:08:45;10.50;;;9.60;;
7025;SDS011;3554;42.132;24.786;2023-02-15T14:11:27;10.60;;;9.53;;
7025;SDS011;3554;42.132;24.786;2023-02-15T14:14:11;11.10;;;10.10;;
7025;SDS011;3554;42.132;24.786;2023-02-15T14:16:54;10.53;;;9.53;;
7025;SDS011;3554;42.132;24.786;2023-02-15T14:19:28;11.27;;;10.20;;
7025;SDS011;3554;42.132;24.786;2023-02-15T14:22:02;11.73;;;10.00;;
7025;SDS011;3554;42.132;24.786;2023-02-15T14:24:38;11.47;;;10.37;;
7025;SDS011;3554;42.132;24.786;2023-02-15T14:27:13;13.43;;;9.87;;
7025;SDS011;3554;42.132;24.786;2023-02-15T14:29:51;11.47;;;10.10;;
7025;SDS011;3554;42.132;24.786;2023-02-15T14:32:25;13.67;;;10.40;;
7025;SDS011;3554;42.132;24.786;2023-02-15T14:34:57;16.07;;;11.47;;
7025;SDS011;3554;42.132;24.786;2023-02-15T14:37:29;18.03;;;11.47;;
7025;SDS011;3554;42.132;24.786;2023-02-15T14:40:07;15.77;;;11.77;;
7025;SDS011;3554;42.132;24.786;2023-02-15T14:42:56;21.07;;;11.37;;
7025;SDS011;3554;42.132;24.786;2023-02-15T14:45:28;13.10;;;11.27;;
7025;SDS011;3554;42.132;24.786;2023-02-15T14:48:04;11.77;;;10.57;;
7025;SDS011;3554;42.132;24.786;2023-02-15T14:50:39;12.80;;;11.40;;
7025;SDS011;3554;42.132;24.786;2023-02-15T14:53:15;12.23;;;10.97;;
7025;SDS011;3554;42.132;24.786;2023-02-15T14:56:15;21.10;;;12.33;;
7025;SDS011;3554;42.132;24.786;2023-02-15T14:58:54;15.00;;;11.50;;
7025;SDS011;3554;42.132;24.786;2023-02-15T15:01:24;26.90;;;13.47;;
7025;SDS011;3554;42.132;24.786;2023-02-15T15:03:54;29.43;;;12.60;;
7025;SDS011;3554;42.132;24.786;2023-02-15T15:06:24;19.30;;;11.93;;
7025;SDS011;3554;42.132;24.786;2023-02-15T15:08:53;17.80;;;12.20;;
7025;SDS011;3554;42.132;24.786;2023-02-15T15:11:42;14.10;;;10.53;;